createdAt,value
2023-02-16T00:00:11.047Z,42
2023-02-16T00:01:23.048Z,43
2023-02-16T00:02:30.934Z,43
2023-02-16T00:03:37.799Z,41
2023-02-16T00:04:45.574Z,43
2023-02-16T00:05:53.242Z,41
2023-02-16T00:07:01.082Z,45
2023-02-16T00:08:09.821Z,39
2023-02-16T00:09:16.664Z,43
2023-02-16T00:10:24.374Z,44
2023-02-16T00:11:36.500Z,39
2023-02-16T00:12:48.575Z,38
2023-02-16T00:14:00.528Z,38
2023-02-16T00:15:08.223Z,40
2023-02-16T00:16:16.161Z,37
2023-02-16T00:17:25.083Z,42
2023-02-16T00:18:33.072Z,37
2023-02-16T00:19:40.734Z,45
2023-02-16T00:20:47.538Z,42
2023-02-16T00:21:55.566Z,43
2023-02-16T00:23:03.257Z,44
2023-02-16T00:24:11.107Z,42
2023-02-16T00:25:19.096Z,41
2023-02-16T00:26:26.362Z,45
2023-02-16T00:27:33.129Z,43
2023-02-16T00:28:41.452Z,41
2023-02-16T00:29:49.209Z,42
2023-02-16T00:30:57.803Z,44
2023-02-16T00:32:04.822Z,41
2023-02-16T00:33:12.800Z,39
2023-02-16T00:34:20.972Z,41
2023-02-16T00:35:30.622Z,44
2023-02-16T00:36:37.607Z,43
2023-02-16T00:37:44.410Z,43
2023-02-16T00:38:51.178Z,44
2023-02-16T00:39:57.936Z,45
2023-02-16T00:41:06.000Z,43
2023-02-16T00:42:20.702Z,43
2023-02-16T00:43:28.309Z,47
2023-02-16T00:44:36.049Z,44
2023-02-16T00:45:42.866Z,42
2023-02-16T00:46:49.762Z,45
2023-02-16T00:47:56.683Z,47
2023-02-16T00:49:03.576Z,43
2023-02-16T00:50:10.402Z,41
2023-02-16T00:51:25.969Z,46
2023-02-16T00:52:30.335Z,45
2023-02-16T00:53:41.362Z,43
2023-02-16T00:54:48.256Z,45
2023-02-16T00:55:56.032Z,45
2023-02-16T00:57:03.335Z,41
2023-02-16T00:58:10.217Z,43
2023-02-16T00:59:26.222Z,48
2023-02-16T01:00:33.071Z,42
2023-02-16T01:01:41.009Z,45
2023-02-16T01:02:47.933Z,42
2023-02-16T01:03:54.823Z,47
2023-02-16T01:05:01.667Z,45
2023-02-16T01:06:10.415Z,49
2023-02-16T01:07:22.397Z,44
2023-02-16T01:08:34.380Z,46
2023-02-16T01:09:47.719Z,44
2023-02-16T01:11:00.762Z,44
2023-02-16T01:12:12.922Z,43
2023-02-16T01:13:20.658Z,45
2023-02-16T01:14:28.482Z,48
2023-02-16T01:15:35.375Z,45
2023-02-16T01:16:43.477Z,42
2023-02-16T01:17:50.326Z,45
2023-02-16T01:18:57.193Z,46
2023-02-16T01:20:04.896Z,46
2023-02-16T01:21:16.870Z,45
2023-02-16T01:22:23.741Z,43
2023-02-16T01:23:31.649Z,44
2023-02-16T01:24:38.468Z,42
2023-02-16T01:25:46.320Z,48
2023-02-16T01:26:53.185Z,47
2023-02-16T01:28:01.077Z,47
2023-02-16T01:29:13.217Z,49
2023-02-16T01:30:20.886Z,44
2023-02-16T01:31:27.694Z,47
2023-02-16T01:32:34.404Z,44
2023-02-16T01:33:42.787Z,39
2023-02-16T01:34:49.741Z,44
2023-02-16T01:35:57.083Z,43
2023-02-16T01:37:03.933Z,42
2023-02-16T01:38:11.745Z,43
2023-02-16T01:39:23.434Z,42
2023-02-16T01:40:30.282Z,41
2023-02-16T01:41:37.176Z,37
2023-02-16T01:42:49.150Z,43
2023-02-16T01:43:56.856Z,38
2023-02-16T01:45:09.268Z,37
2023-02-16T01:46:16.996Z,35
2023-02-16T01:47:23.855Z,42
2023-02-16T01:48:35.858Z,36
2023-02-16T01:49:44.031Z,42
2023-02-16T01:50:50.830Z,42
2023-02-16T01:51:58.585Z,39
2023-02-16T01:53:08.269Z,39
2023-02-16T01:54:21.084Z,40
2023-02-16T01:55:39.180Z,39
2023-02-16T01:56:45.965Z,41
2023-02-16T01:57:52.860Z,39
2023-02-16T01:59:07.392Z,41
2023-02-16T02:00:15.038Z,45
2023-02-16T02:01:28.782Z,42
2023-02-16T02:02:39.744Z,41
2023-02-16T02:03:47.760Z,41
2023-02-16T02:05:00.457Z,43
2023-02-16T02:06:20.623Z,43
2023-02-16T02:07:27.811Z,42
2023-02-16T02:08:40.451Z,45
2023-02-16T02:09:57.551Z,43
2023-02-16T02:11:04.762Z,48
2023-02-16T02:12:16.480Z,44
2023-02-16T02:13:36.518Z,46
2023-02-16T02:14:48.472Z,45
2023-02-16T02:15:55.543Z,40
2023-02-16T02:17:02.252Z,47
2023-02-16T02:18:14.186Z,43
2023-02-16T02:19:22.752Z,46
2023-02-16T02:20:29.790Z,45
2023-02-16T02:21:52.131Z,45
2023-02-16T02:23:15.479Z,45
2023-02-16T02:24:32.538Z,45
2023-02-16T02:25:48.450Z,44
2023-02-16T02:27:00.483Z,45
2023-02-16T02:28:16.370Z,46
2023-02-16T02:29:33.447Z,47
2023-02-16T02:30:45.527Z,46
2023-02-16T02:31:52.353Z,44
2023-02-16T02:33:09.390Z,45
2023-02-16T02:34:21.518Z,43
2023-02-16T02:35:39.509Z,46
2023-02-16T02:36:52.725Z,44
2023-02-16T02:38:05.768Z,45
2023-02-16T02:39:17.727Z,47
2023-02-16T02:40:34.958Z,44
2023-02-16T02:41:48.802Z,47
2023-02-16T02:43:05.899Z,46
2023-02-16T02:44:20.795Z,45
2023-02-16T02:45:28.663Z,49
2023-02-16T02:46:41.619Z,41
2023-02-16T02:47:48.620Z,43
2023-02-16T02:48:55.466Z,42
2023-02-16T02:50:03.290Z,45
2023-02-16T02:51:20.442Z,41
2023-02-16T02:52:32.470Z,42
2023-02-16T02:53:39.332Z,46
2023-02-16T02:54:51.377Z,41
2023-02-16T02:56:04.268Z,44
2023-02-16T02:57:16.275Z,42
2023-02-16T02:58:36.123Z,43
2023-02-16T02:59:48.110Z,45
2023-02-16T03:01:05.694Z,44
2023-02-16T03:02:13.102Z,46
2023-02-16T03:03:20.016Z,44
2023-02-16T03:04:37.919Z,45
2023-02-16T03:05:45.225Z,48
2023-02-16T03:06:55.786Z,43
2023-02-16T03:08:02.614Z,45
2023-02-16T03:09:13.184Z,46
2023-02-16T03:10:20.079Z,49
2023-02-16T03:11:32.947Z,46
2023-02-16T03:12:44.862Z,47
2023-02-16T03:13:51.640Z,46
2023-02-16T03:15:05.172Z,47
2023-02-16T03:16:12.976Z,49
2023-02-16T03:17:19.837Z,44
2023-02-16T03:18:34.626Z,47
2023-02-16T03:19:46.658Z,47
2023-02-16T03:20:59.483Z,47
2023-02-16T03:22:12.529Z,44
2023-02-16T03:23:25.271Z,51
2023-02-16T03:24:37.331Z,47
2023-02-16T03:25:49.345Z,45
2023-02-16T03:27:03.081Z,46
2023-02-16T03:28:15.072Z,48
2023-02-16T03:29:27.069Z,49
2023-02-16T03:30:34.157Z,51
2023-02-16T03:31:40.939Z,51
2023-02-16T03:32:49.114Z,46
2023-02-16T03:33:55.985Z,50
2023-02-16T03:35:04.134Z,45
2023-02-16T03:36:13.095Z,49
2023-02-16T03:37:21.243Z,52
2023-02-16T03:38:28.188Z,53
2023-02-16T03:39:35.780Z,50
2023-02-16T03:40:47.779Z,51
2023-02-16T03:41:56.823Z,46
2023-02-16T03:43:05.421Z,46
2023-02-16T03:44:12.242Z,48
2023-02-16T03:45:20.982Z,48
2023-02-16T03:46:27.890Z,51
2023-02-16T03:47:34.762Z,50
2023-02-16T03:48:41.621Z,46
2023-02-16T03:49:48.629Z,47
2023-02-16T03:50:58.522Z,52
2023-02-16T03:52:05.369Z,48
2023-02-16T03:53:12.175Z,47
2023-02-16T03:54:19.041Z,45
2023-02-16T03:55:26.909Z,47
2023-02-16T03:56:33.764Z,50
2023-02-16T03:57:40.628Z,46
2023-02-16T03:58:47.545Z,51
2023-02-16T03:59:54.352Z,51
2023-02-16T04:01:01.317Z,48
2023-02-16T04:02:10.370Z,45
2023-02-16T04:03:18.249Z,44
2023-02-16T04:04:25.172Z,49
2023-02-16T04:05:32.988Z,47
2023-02-16T04:06:40.769Z,48
2023-02-16T04:07:47.638Z,50
2023-02-16T04:08:55.438Z,43
2023-02-16T04:10:03.293Z,49
2023-02-16T04:11:10.207Z,52
2023-02-16T04:12:22.402Z,52
2023-02-16T04:13:34.424Z,50
2023-02-16T04:14:43.554Z,45
2023-02-16T04:15:50.392Z,48
2023-02-16T04:16:59.425Z,49
2023-02-16T04:18:07.246Z,46
2023-02-16T04:19:14.978Z,51
2023-02-16T04:20:23.967Z,46
2023-02-16T04:21:31.848Z,48
2023-02-16T04:22:40.655Z,44
2023-02-16T04:23:47.555Z,48
2023-02-16T04:24:54.510Z,46
2023-02-16T04:26:01.544Z,47
2023-02-16T04:27:09.450Z,47
2023-02-16T04:28:16.636Z,48
2023-02-16T04:29:24.358Z,50
2023-02-16T04:30:32.293Z,48
2023-02-16T04:31:40.797Z,52
2023-02-16T04:32:49.347Z,49
2023-02-16T04:33:57.166Z,54
2023-02-16T04:35:03.992Z,50
2023-02-16T04:36:12.471Z,46
2023-02-16T04:37:19.326Z,47
2023-02-16T04:38:26.310Z,51
2023-02-16T04:39:33.220Z,48
2023-02-16T04:40:40.222Z,50
2023-02-16T04:41:47.095Z,47
2023-02-16T04:42:53.950Z,49
2023-02-16T04:44:00.828Z,51
2023-02-16T04:45:07.791Z,48
2023-02-16T04:46:14.935Z,45
2023-02-16T04:47:21.816Z,47
2023-02-16T04:48:31.765Z,49
2023-02-16T04:49:38.678Z,46
2023-02-16T04:50:46.946Z,43
2023-02-16T04:51:53.776Z,50
2023-02-16T04:53:03.132Z,49
2023-02-16T04:54:10.144Z,47
2023-02-16T04:55:18.193Z,48
2023-02-16T04:56:25.382Z,45
2023-02-16T04:57:32.257Z,49
2023-02-16T04:58:40.057Z,51
2023-02-16T04:59:49.321Z,49
2023-02-16T05:00:56.169Z,51
2023-02-16T05:02:04.422Z,48
2023-02-16T05:03:11.356Z,51
2023-02-16T05:04:19.039Z,49
2023-02-16T05:05:25.910Z,48
2023-02-16T05:06:33.805Z,49
2023-02-16T05:07:43.296Z,50
2023-02-16T05:08:50.212Z,46
2023-02-16T05:09:58.198Z,49
2023-02-16T05:11:05.340Z,50
2023-02-16T05:12:20.085Z,51
2023-02-16T05:13:32.041Z,47
2023-02-16T05:14:44.040Z,49
2023-02-16T05:15:51.751Z,47
2023-02-16T05:16:58.570Z,52
2023-02-16T05:18:05.529Z,49
2023-02-16T05:19:13.937Z,53
2023-02-16T05:20:21.744Z,47
2023-02-16T05:21:28.721Z,47
2023-02-16T05:22:39.900Z,46
2023-02-16T05:23:50.504Z,53
2023-02-16T05:24:57.347Z,49
2023-02-16T05:26:05.039Z,49
2023-02-16T05:27:11.933Z,51
2023-02-16T05:28:21.893Z,49
2023-02-16T05:29:28.665Z,50
2023-02-16T05:30:35.611Z,43
2023-02-16T05:31:43.389Z,48
2023-02-16T05:32:50.100Z,47
2023-02-16T05:33:57.748Z,49
2023-02-16T05:35:04.652Z,48
2023-02-16T05:36:11.746Z,50
2023-02-16T05:37:18.627Z,44
2023-02-16T05:38:25.888Z,46
2023-02-16T05:39:35.587Z,49
2023-02-16T05:40:42.732Z,42
2023-02-16T05:41:50.513Z,49
2023-02-16T05:42:57.319Z,47
2023-02-16T05:44:04.172Z,52
2023-02-16T05:45:12.126Z,48
2023-02-16T05:46:19.977Z,51
2023-02-16T05:47:26.891Z,53
2023-02-16T05:48:34.670Z,49
2023-02-16T05:49:41.544Z,50
2023-02-16T05:50:49.108Z,49
2023-02-16T05:51:58.674Z,49
2023-02-16T05:53:05.634Z,52
2023-02-16T05:54:13.407Z,50
2023-02-16T05:55:20.291Z,50
2023-02-16T05:56:27.986Z,49
2023-02-16T05:57:34.905Z,52
2023-02-16T05:58:41.629Z,50
2023-02-16T05:59:49.448Z,44
2023-02-16T06:00:58.128Z,49
2023-02-16T06:02:05.884Z,48
2023-02-16T06:03:13.665Z,47
2023-02-16T06:04:21.856Z,48
2023-02-16T06:05:29.720Z,53
2023-02-16T06:06:38.233Z,49
2023-02-16T06:07:45.125Z,51
2023-02-16T06:08:52.116Z,48
2023-02-16T06:09:59.856Z,54
2023-02-16T06:11:07.644Z,54
2023-02-16T06:12:14.535Z,54
2023-02-16T06:13:22.268Z,55
2023-02-16T06:14:29.115Z,52
2023-02-16T06:15:35.865Z,59
2023-02-16T06:16:43.770Z,48
2023-02-16T06:17:51.701Z,49
2023-02-16T06:18:58.628Z,49
2023-02-16T06:20:05.544Z,50
2023-02-16T06:21:12.645Z,51
2023-02-16T06:22:19.461Z,54
2023-02-16T06:23:28.125Z,57
2023-02-16T06:24:35.841Z,50
2023-02-16T06:25:43.568Z,50
2023-02-16T06:26:50.364Z,54
2023-02-16T06:27:57.226Z,55
2023-02-16T06:29:06.028Z,54
2023-02-16T06:30:14.866Z,53
2023-02-16T06:31:22.146Z,54
2023-02-16T06:32:29.068Z,56
2023-02-16T06:33:37.212Z,56
2023-02-16T06:34:44.219Z,56
2023-02-16T06:35:53.307Z,53
2023-02-16T06:37:00.177Z,57
2023-02-16T06:38:08.016Z,54
2023-02-16T06:39:15.848Z,52
2023-02-16T06:40:22.799Z,53
2023-02-16T06:41:29.703Z,57
2023-02-16T06:42:37.660Z,54
2023-02-16T06:43:44.524Z,53
2023-02-16T06:44:52.270Z,49
2023-02-16T06:45:57.397Z,49
2023-02-16T06:47:04.707Z,53
2023-02-16T06:48:11.640Z,54
2023-02-16T06:49:19.311Z,56
2023-02-16T06:50:28.247Z,47
2023-02-16T06:51:35.183Z,53
2023-02-16T06:52:43.086Z,52
2023-02-16T06:53:51.851Z,52
2023-02-16T06:54:59.593Z,53
2023-02-16T06:56:06.583Z,48
2023-02-16T06:57:13.610Z,52
2023-02-16T06:58:21.246Z,50
2023-02-16T06:59:28.342Z,46
2023-02-16T07:00:35.322Z,51
2023-02-16T07:01:44.132Z,56
2023-02-16T07:02:48.948Z,48
2023-02-16T07:03:56.811Z,54
2023-02-16T07:05:04.958Z,51
2023-02-16T07:06:12.766Z,58
2023-02-16T07:07:20.438Z,55
2023-02-16T07:08:29.338Z,52
2023-02-16T07:09:39.026Z,56
2023-02-16T07:10:50.289Z,51
2023-02-16T07:11:54.411Z,56
2023-02-16T07:13:02.193Z,60
2023-02-16T07:14:10.526Z,46
2023-02-16T07:15:17.496Z,55
2023-02-16T07:16:25.316Z,51
2023-02-16T07:17:33.121Z,53
2023-02-16T07:18:39.953Z,49
2023-02-16T07:19:48.689Z,53
2023-02-16T07:20:55.529Z,55
2023-02-16T07:22:03.169Z,54
2023-02-16T07:23:10.942Z,49
2023-02-16T07:24:18.412Z,52
2023-02-16T07:25:27.905Z,51
2023-02-16T07:26:35.576Z,53
2023-02-16T07:27:42.502Z,54
2023-02-16T07:28:50.493Z,51
2023-02-16T07:29:58.391Z,54
2023-02-16T07:31:06.604Z,51
2023-02-16T07:32:13.299Z,55
2023-02-16T07:33:20.161Z,51
2023-02-16T07:34:27.947Z,52
2023-02-16T07:35:34.924Z,51
2023-02-16T07:36:43.197Z,55
2023-02-16T07:37:50.095Z,50
2023-02-16T07:39:00.384Z,49
2023-02-16T07:40:07.336Z,49
2023-02-16T07:41:14.527Z,49
2023-02-16T07:42:21.330Z,49
2023-02-16T07:43:29.235Z,49
2023-02-16T07:44:36.095Z,47
2023-02-16T07:45:45.651Z,51
2023-02-16T07:46:52.533Z,45
2023-02-16T07:48:00.186Z,51
2023-02-16T07:49:07.267Z,53
2023-02-16T07:50:14.125Z,48
2023-02-16T07:51:20.896Z,47
2023-02-16T07:52:28.737Z,50
2023-02-16T07:53:35.617Z,46
2023-02-16T07:54:43.718Z,55
2023-02-16T07:55:50.671Z,51
2023-02-16T07:57:02.516Z,47
2023-02-16T07:58:09.333Z,53
2023-02-16T07:59:16.534Z,44
2023-02-16T08:00:23.746Z,49
2023-02-16T08:01:31.439Z,52
2023-02-16T08:02:39.155Z,56
2023-02-16T08:03:46.797Z,55
2023-02-16T08:04:53.679Z,50
2023-02-16T08:06:01.545Z,51
2023-02-16T08:07:08.560Z,47
2023-02-16T08:08:15.580Z,52
2023-02-16T08:09:22.381Z,49
2023-02-16T08:10:29.488Z,53
2023-02-16T08:11:36.661Z,50
2023-02-16T08:12:43.529Z,52
2023-02-16T08:13:51.333Z,50
2023-02-16T08:14:59.593Z,50
2023-02-16T08:16:06.867Z,50
2023-02-16T08:17:13.504Z,48
2023-02-16T08:18:20.525Z,49
2023-02-16T08:19:27.466Z,47
2023-02-16T08:20:51.065Z,48
2023-02-16T08:21:41.275Z,47
2023-02-16T08:22:49.417Z,48
2023-02-16T08:24:00.503Z,49
2023-02-16T08:25:07.517Z,50
2023-02-16T08:26:14.422Z,50
2023-02-16T08:27:22.294Z,47
2023-02-16T08:28:29.309Z,47
2023-02-16T08:29:36.162Z,45
2023-02-16T08:30:43.106Z,43
2023-02-16T08:31:50.998Z,49
2023-02-16T08:32:57.742Z,46
2023-02-16T08:34:07.115Z,46
2023-02-16T08:35:14.979Z,45
2023-02-16T08:36:22.042Z,50
2023-02-16T08:37:28.948Z,47
2023-02-16T08:38:35.800Z,47
2023-02-16T08:39:44.464Z,46
2023-02-16T08:40:51.371Z,47
2023-02-16T08:41:58.450Z,48
2023-02-16T08:43:07.236Z,46
2023-02-16T08:44:15.207Z,42
2023-02-16T08:45:22.023Z,47
2023-02-16T08:46:29.984Z,45
2023-02-16T08:47:36.769Z,43
2023-02-16T08:48:43.689Z,52
2023-02-16T08:49:50.706Z,50
2023-02-16T08:50:57.723Z,51
2023-02-16T08:52:04.867Z,51
2023-02-16T08:53:11.839Z,50
2023-02-16T08:54:19.688Z,48
2023-02-16T08:55:26.499Z,45
2023-02-16T08:56:33.578Z,46
2023-02-16T08:57:40.789Z,48
2023-02-16T08:58:49.084Z,51
2023-02-16T08:59:56.718Z,46
2023-02-16T09:01:10.021Z,45
2023-02-16T09:02:25.497Z,52
2023-02-16T09:03:35.585Z,48
2023-02-16T09:04:43.050Z,49
2023-02-16T09:05:51.780Z,47
2023-02-16T09:06:58.865Z,49
2023-02-16T09:08:06.044Z,48
2023-02-16T09:09:13.137Z,45
2023-02-16T09:10:20.120Z,45
2023-02-16T09:11:29.860Z,48
2023-02-16T09:12:36.970Z,47
2023-02-16T09:13:43.964Z,49
2023-02-16T09:14:50.884Z,47
2023-02-16T09:15:57.807Z,49
2023-02-16T09:17:11.808Z,45
2023-02-16T09:18:19.067Z,54
2023-02-16T09:19:28.208Z,48
2023-02-16T09:20:35.045Z,50
2023-02-16T09:21:44.808Z,44
2023-02-16T09:22:54.744Z,49
2023-02-16T09:24:04.742Z,47
2023-02-16T09:25:15.968Z,45
2023-02-16T09:26:22.876Z,42
2023-02-16T09:27:33.364Z,47
2023-02-16T09:28:43.633Z,49
2023-02-16T09:29:50.576Z,47
2023-02-16T09:30:57.536Z,47
2023-02-16T09:32:04.924Z,43
2023-02-16T09:33:11.881Z,45
2023-02-16T09:34:19.658Z,46
2023-02-16T09:35:28.308Z,44
2023-02-16T09:36:35.419Z,44
2023-02-16T09:37:44.323Z,45
2023-02-16T09:38:51.780Z,41
2023-02-16T09:39:59.976Z,43
2023-02-16T09:41:07.948Z,46
2023-02-16T09:42:25.191Z,41
2023-02-16T09:43:40.285Z,42
2023-02-16T09:44:52.390Z,48
2023-02-16T09:46:09.748Z,52
2023-02-16T09:47:16.627Z,51
2023-02-16T09:48:32.609Z,49
2023-02-16T09:49:39.489Z,46
2023-02-16T09:50:54.038Z,45
2023-02-16T09:51:58.006Z,50
2023-02-16T09:53:09.044Z,47
2023-02-16T09:54:16.065Z,44
2023-02-16T09:55:22.889Z,45
2023-02-16T09:56:32.839Z,50
2023-02-16T09:57:47.407Z,44
2023-02-16T09:58:59.424Z,41
2023-02-16T10:00:12.312Z,42
2023-02-16T10:01:27.931Z,43
2023-02-16T10:02:43.935Z,44
2023-02-16T10:03:55.155Z,39
2023-02-16T10:05:11.344Z,44
2023-02-16T10:06:26.393Z,39
2023-02-16T10:07:41.557Z,42
2023-02-16T10:08:56.357Z,38
2023-02-16T10:10:09.545Z,43
2023-02-16T10:11:16.640Z,41
2023-02-16T10:12:33.881Z,44
2023-02-16T10:13:41.773Z,41
2023-02-16T10:14:49.299Z,44
2023-02-16T10:16:02.178Z,47
2023-02-16T10:17:09.105Z,40
2023-02-16T10:18:18.635Z,39
2023-02-16T10:19:28.399Z,38
2023-02-16T10:20:41.268Z,42
2023-02-16T10:21:48.810Z,39
2023-02-16T10:22:55.654Z,41
2023-02-16T10:24:13.766Z,38
2023-02-16T10:25:20.693Z,43
2023-02-16T10:26:38.045Z,47
2023-02-16T10:27:51.711Z,44
2023-02-16T10:29:01.601Z,47
2023-02-16T10:30:11.584Z,47
2023-02-16T10:31:18.522Z,45
2023-02-16T10:32:39.380Z,46
2023-02-16T10:33:42.778Z,46
2023-02-16T10:34:54.895Z,45
2023-02-16T10:36:12.173Z,44
2023-02-16T10:37:27.961Z,47
2023-02-16T10:38:43.826Z,47
2023-02-16T10:40:01.793Z,44
2023-02-16T10:41:19.198Z,47
2023-02-16T10:42:36.410Z,48
2023-02-16T10:43:51.202Z,48
2023-02-16T10:45:03.339Z,54
2023-02-16T10:46:21.389Z,54
2023-02-16T10:47:29.447Z,53
2023-02-16T10:48:40.495Z,54
2023-02-16T10:49:47.375Z,52
2023-02-16T10:50:54.239Z,53
2023-02-16T10:52:12.487Z,54
2023-02-16T10:53:21.441Z,48
2023-02-16T10:54:36.278Z,49
2023-02-16T10:55:43.423Z,48
2023-02-16T10:56:52.276Z,48
2023-02-16T10:58:01.881Z,44
2023-02-16T10:59:11.760Z,45
2023-02-16T11:00:22.591Z,48
2023-02-16T11:01:40.775Z,48
2023-02-16T11:02:51.697Z,50
2023-02-16T11:03:59.594Z,50
2023-02-16T11:05:06.447Z,49
2023-02-16T11:06:23.768Z,49
2023-02-16T11:07:30.602Z,48
2023-02-16T11:08:37.413Z,52
2023-02-16T11:09:52.078Z,58
2023-02-16T11:10:59.862Z,56
2023-02-16T11:12:09.205Z,50
2023-02-16T11:13:18.522Z,47
2023-02-16T11:14:35.681Z,46
2023-02-16T11:15:42.637Z,48
2023-02-16T11:16:50.337Z,43
2023-02-16T11:18:05.181Z,48
2023-02-16T11:19:13.032Z,49
2023-02-16T11:20:22.762Z,49
2023-02-16T11:21:30.459Z,52
2023-02-16T11:22:47.651Z,52
2023-02-16T11:23:54.552Z,50
2023-02-16T11:25:08.197Z,51
2023-02-16T11:26:15.975Z,54
2023-02-16T11:27:23.867Z,51
2023-02-16T11:28:32.440Z,52
2023-02-16T11:29:43.710Z,53
2023-02-16T11:30:50.844Z,51
2023-02-16T11:32:03.768Z,49
2023-02-16T11:33:13.805Z,49
2023-02-16T11:34:24.736Z,48
2023-02-16T11:35:32.396Z,49
2023-02-16T11:36:39.299Z,47
2023-02-16T11:37:46.257Z,50
2023-02-16T11:38:53.129Z,52
2023-02-16T11:40:00.004Z,52
2023-02-16T11:41:12.648Z,55
2023-02-16T11:42:19.647Z,53
2023-02-16T11:43:32.123Z,50
2023-02-16T11:44:39.934Z,57
2023-02-16T11:45:52.778Z,52
2023-02-16T11:47:03.661Z,54
2023-02-16T11:48:13.051Z,53
2023-02-16T11:49:21.282Z,50
2023-02-16T11:50:39.403Z,47
2023-02-16T11:51:56.617Z,48
2023-02-16T11:53:03.664Z,46
2023-02-16T11:54:14.888Z,49
2023-02-16T11:55:25.086Z,50
2023-02-16T11:56:32.513Z,49
2023-02-16T11:57:39.534Z,49
2023-02-16T11:58:47.367Z,47
2023-02-16T12:00:06.796Z,47
2023-02-16T12:01:20.251Z,50
2023-02-16T12:02:27.241Z,49
2023-02-16T12:03:40.597Z,48
2023-02-16T12:04:52.701Z,48
2023-02-16T12:06:08.627Z,47
2023-02-16T12:07:25.969Z,49
2023-02-16T12:08:36.270Z,49
2023-02-16T12:09:53.479Z,51
2023-02-16T12:11:13.679Z,53
2023-02-16T12:12:26.024Z,53
2023-02-16T12:13:35.987Z,50
2023-02-16T12:14:53.326Z,56
2023-02-16T12:16:08.874Z,53
2023-02-16T12:17:23.394Z,48
2023-02-16T12:18:31.322Z,53
2023-02-16T12:19:38.175Z,55
2023-02-16T12:20:45.071Z,58
2023-02-16T12:21:53.256Z,57
2023-02-16T12:23:06.285Z,53
2023-02-16T12:24:18.270Z,53
2023-02-16T12:25:33.467Z,50
2023-02-16T12:26:40.495Z,51
2023-02-16T12:27:58.822Z,50
2023-02-16T12:29:09.331Z,49
2023-02-16T12:30:26.008Z,51
2023-02-16T12:31:41.106Z,44
2023-02-16T12:32:55.853Z,42
2023-02-16T12:34:10.776Z,42
2023-02-16T12:35:19.115Z,45
2023-02-16T12:36:36.243Z,48
2023-02-16T12:37:54.357Z,49
2023-02-16T12:39:09.903Z,45
2023-02-16T12:40:23.694Z,44
2023-02-16T12:41:41.223Z,48
2023-02-16T12:42:51.102Z,45
2023-02-16T12:43:58.839Z,47
2023-02-16T12:45:05.967Z,47
2023-02-16T12:46:16.189Z,43
2023-02-16T12:47:27.614Z,43
2023-02-16T12:48:44.242Z,49
2023-02-16T12:50:00.249Z,46
2023-02-16T12:51:16.149Z,49
2023-02-16T12:52:30.739Z,53
2023-02-16T12:53:45.826Z,44
2023-02-16T12:54:57.891Z,45
2023-02-16T12:56:10.122Z,48
2023-02-16T12:57:17.107Z,47
2023-02-16T12:58:25.936Z,43
2023-02-16T12:59:35.332Z,41
2023-02-16T13:00:49.141Z,47
2023-02-16T13:01:57.529Z,47
2023-02-16T13:03:05.482Z,52
2023-02-16T13:04:21.445Z,49
2023-02-16T13:05:30.286Z,50
2023-02-16T13:06:40.706Z,49
2023-02-16T13:07:49.717Z,50
2023-02-16T13:08:56.934Z,52
2023-02-16T13:10:16.864Z,52
2023-02-16T13:11:35.463Z,54
2023-02-16T13:12:56.145Z,54
2023-02-16T13:14:08.234Z,44
2023-02-16T13:15:16.133Z,47
2023-02-16T13:16:30.317Z,50
2023-02-16T13:17:41.562Z,49
2023-02-16T13:18:58.843Z,48
2023-02-16T13:20:06.114Z,49
2023-02-16T13:21:19.174Z,46
2023-02-16T13:22:26.113Z,47
2023-02-16T13:23:35.929Z,50
2023-02-16T13:24:57.163Z,49
2023-02-16T13:26:11.979Z,48
2023-02-16T13:27:26.604Z,44
2023-02-16T13:28:44.069Z,51
2023-02-16T13:29:58.994Z,45
2023-02-16T13:31:17.134Z,44
2023-02-16T13:32:36.060Z,47
2023-02-16T13:33:50.592Z,47
2023-02-16T13:35:02.978Z,46
2023-02-16T13:36:20.229Z,52
2023-02-16T13:37:33.622Z,51
2023-02-16T13:38:52.462Z,58
2023-02-16T13:40:04.825Z,47
2023-02-16T13:41:17.529Z,49
2023-02-16T13:42:35.034Z,45
2023-02-16T13:43:47.079Z,49
2023-02-16T13:45:04.175Z,47
2023-02-16T13:46:16.625Z,50
2023-02-16T13:47:23.530Z,45
2023-02-16T13:48:38.025Z,46
2023-02-16T13:49:48.633Z,51
2023-02-16T13:51:01.314Z,48
2023-02-16T13:52:08.916Z,47
2023-02-16T13:53:28.986Z,47
2023-02-16T13:54:38.813Z,48
2023-02-16T13:55:48.656Z,48
2023-02-16T13:56:55.713Z,47
2023-02-16T13:58:02.745Z,43
2023-02-16T13:59:16.649Z,47
2023-02-16T14:00:23.649Z,47
2023-02-16T14:01:38.389Z,46
2023-02-16T14:02:47.254Z,47
2023-02-16T14:03:57.790Z,49
2023-02-16T14:05:04.700Z,50
2023-02-16T14:06:12.845Z,51
2023-02-16T14:07:25.211Z,47
2023-02-16T14:08:38.493Z,45
2023-02-16T14:09:45.366Z,57
2023-02-16T14:10:52.442Z,50
2023-02-16T14:11:59.402Z,50
2023-02-16T14:13:07.134Z,46
2023-02-16T14:14:14.061Z,48
2023-02-16T14:15:32.786Z,44
2023-02-16T14:16:40.536Z,46
2023-02-16T14:17:50.315Z,45
2023-02-16T14:19:05.386Z,47
2023-02-16T14:20:18.414Z,54
2023-02-16T14:21:26.197Z,48
2023-02-16T14:22:38.230Z,46
2023-02-16T14:23:48.163Z,46
2023-02-16T14:25:00.924Z,55
2023-02-16T14:26:18.401Z,52
2023-02-16T14:27:27.664Z,47
2023-02-16T14:28:44.763Z,48
2023-02-16T14:29:55.012Z,48
2023-02-16T14:31:06.071Z,48
2023-02-16T14:32:16.263Z,48
2023-02-16T14:33:23.182Z,47
2023-02-16T14:34:40.256Z,46
2023-02-16T14:36:09.237Z,45
2023-02-16T14:37:21.150Z,50
2023-02-16T14:38:31.921Z,51
2023-02-16T14:40:06.801Z,51
2023-02-16T14:40:54.886Z,50
2023-02-16T14:42:04.964Z,52
2023-02-16T14:43:17.908Z,45
2023-02-16T14:44:34.749Z,55
2023-02-16T14:45:43.021Z,50
2023-02-16T14:46:55.014Z,54
2023-02-16T14:48:10.416Z,55
2023-02-16T14:49:24.340Z,49
2023-02-16T14:50:37.753Z,53
2023-02-16T14:51:51.092Z,57
2023-02-16T14:53:08.203Z,56
2023-02-16T14:54:21.008Z,54
2023-02-16T14:55:36.354Z,60
2023-02-16T14:56:55.220Z,60
2023-02-16T14:58:07.630Z,64
2023-02-16T14:59:17.615Z,62
2023-02-16T15:00:29.859Z,55
2023-02-16T15:01:44.726Z,66
2023-02-16T15:02:55.483Z,62
2023-02-16T15:04:06.132Z,50
2023-02-16T15:05:14.181Z,49
2023-02-16T15:06:24.989Z,54
2023-02-16T15:07:41.660Z,52
2023-02-16T15:08:50.292Z,57
2023-02-16T15:10:05.960Z,58
2023-02-16T15:11:15.046Z,55
2023-02-16T15:12:23.376Z,55
2023-02-16T15:13:33.875Z,52
2023-02-16T15:14:41.266Z,52
2023-02-16T15:15:54.007Z,49
2023-02-16T15:17:01.599Z,49
2023-02-16T15:18:15.899Z,50
2023-02-16T15:19:24.352Z,55
2023-02-16T15:20:35.295Z,53
2023-02-16T15:21:43.039Z,51
2023-02-16T15:22:54.549Z,49
2023-02-16T15:24:03.548Z,44
2023-02-16T15:25:14.116Z,45
2023-02-16T15:26:30.435Z,50
2023-02-16T15:27:38.524Z,51
2023-02-16T15:28:46.496Z,55
2023-02-16T15:29:54.061Z,51
2023-02-16T15:31:14.419Z,59
2023-02-16T15:32:22.701Z,60
2023-02-16T15:33:35.085Z,60
2023-02-16T15:34:46.026Z,71
2023-02-16T15:35:53.917Z,71
2023-02-16T15:37:07.197Z,62
2023-02-16T15:38:23.452Z,68
2023-02-16T15:39:48.535Z,81
2023-02-16T15:40:48.058Z,71
2023-02-16T15:41:59.472Z,78
2023-02-16T15:43:11.964Z,75
2023-02-16T15:44:26.755Z,68
2023-02-16T15:45:36.795Z,66
2023-02-16T15:46:45.167Z,57
2023-02-16T15:47:56.874Z,59
2023-02-16T15:49:14.946Z,58
2023-02-16T15:50:34.266Z,49
2023-02-16T15:51:46.278Z,56
2023-02-16T15:52:55.055Z,59
2023-02-16T15:54:02.632Z,56
2023-02-16T15:55:28.876Z,62
2023-02-16T15:56:36.089Z,57
2023-02-16T15:57:47.104Z,58
2023-02-16T15:58:55.931Z,49
2023-02-16T16:00:04.036Z,57
2023-02-16T16:01:31.496Z,56
2023-02-16T16:02:48.899Z,55
2023-02-16T16:04:00.476Z,55
2023-02-16T16:05:14.479Z,62
2023-02-16T16:06:24.219Z,55
2023-02-16T16:07:31.440Z,57
2023-02-16T16:08:40.231Z,54
2023-02-16T16:09:49.832Z,56
2023-02-16T16:10:58.574Z,56
2023-02-16T16:12:09.675Z,56
2023-02-16T16:13:18.370Z,55
2023-02-16T16:14:30.762Z,57
2023-02-16T16:15:41.354Z,57
2023-02-16T16:16:50.573Z,61
2023-02-16T16:17:58.574Z,65
2023-02-16T16:19:09.173Z,69
2023-02-16T16:20:22.209Z,69
2023-02-16T16:21:35.738Z,67
2023-02-16T16:22:50.665Z,65
2023-02-16T16:24:02.271Z,61
2023-02-16T16:25:13.315Z,58
2023-02-16T16:26:31.419Z,54
2023-02-16T16:27:44.172Z,56
2023-02-16T16:29:01.023Z,62
2023-02-16T16:30:11.020Z,58
2023-02-16T16:31:24.512Z,59
2023-02-16T16:32:34.391Z,54
2023-02-16T16:33:52.535Z,59
2023-02-16T16:35:07.654Z,58
2023-02-16T16:36:22.921Z,55
2023-02-16T16:37:41.771Z,61